createdAt,value
2022-12-19T00:01:32.944Z,36.00
2022-12-19T00:04:02.248Z,36.70
2022-12-19T00:06:33.966Z,35.00
2022-12-19T00:09:00.368Z,33.50
2022-12-19T00:11:27.844Z,39.00
2022-12-19T00:13:54.658Z,36.80
2022-12-19T00:16:23.408Z,33.80
2022-12-19T00:18:55.201Z,39.20
2022-12-19T00:21:24.032Z,36.80
2022-12-19T00:23:51.127Z,37.70
2022-12-19T00:26:25.679Z,37.30
2022-12-19T00:28:54.823Z,35.00
2022-12-19T00:31:25.781Z,37.20
2022-12-19T00:33:52.892Z,35.50
2022-12-19T00:36:22.732Z,38.20
2022-12-19T00:38:50.791Z,38.80
2022-12-19T00:41:19.255Z,38.00
2022-12-19T00:43:46.193Z,37.50
2022-12-19T00:46:14.792Z,37.80
2022-12-19T00:48:41.958Z,38.00
2022-12-19T00:51:13.839Z,38.30
2022-12-19T00:53:42.764Z,38.10
2022-12-19T00:56:14.773Z,38.30
2022-12-19T00:58:46.643Z,40.00
2022-12-19T01:01:16.325Z,36.00
2022-12-19T01:04:04.473Z,37.50
2022-12-19T01:06:31.513Z,35.70
2022-12-19T01:08:58.284Z,38.60
2022-12-19T01:11:47.776Z,40.90
2022-12-19T01:14:20.804Z,37.40
2022-12-19T01:16:50.086Z,36.10
2022-12-19T01:19:18.938Z,41.80
2022-12-19T01:21:45.708Z,39.70
2022-12-19T01:24:12.253Z,41.00
2022-12-19T01:26:39.955Z,40.90
2022-12-19T01:29:06.452Z,43.10
2022-12-19T01:31:32.976Z,32.70
2022-12-19T01:34:02.174Z,43.60
2022-12-19T01:36:28.589Z,42.10
2022-12-19T01:38:56.609Z,42.50
2022-12-19T01:41:23.257Z,37.00
2022-12-19T01:44:12.901Z,44.00
2022-12-19T01:46:47.578Z,41.70
2022-12-19T01:49:34.741Z,42.10
2022-12-19T01:52:09.686Z,43.90
2022-12-19T01:54:40.559Z,45.90
2022-12-19T01:57:12.473Z,40.50
2022-12-19T02:02:17.191Z,42.90
2022-12-19T02:04:45.248Z,42.50
2022-12-19T02:07:16.080Z,46.50
2022-12-19T02:09:45.036Z,42.10
2022-12-19T02:12:12.978Z,47.30
2022-12-19T02:14:40.382Z,44.80
2022-12-19T02:17:18.375Z,42.10
2022-12-19T02:20:12.328Z,43.70
2022-12-19T02:23:00.360Z,44.40
2022-12-19T02:25:56.789Z,44.40
2022-12-19T02:28:57.013Z,46.10
2022-12-19T02:31:30.865Z,44.50
2022-12-19T02:34:13.897Z,43.90
2022-12-19T02:37:00.212Z,46.60
2022-12-19T02:39:40.369Z,45.20
2022-12-19T02:42:09.355Z,44.80
2022-12-19T02:44:42.056Z,40.40
2022-12-19T02:47:09.238Z,44.50
2022-12-19T02:49:37.586Z,46.30
2022-12-19T02:52:19.202Z,44.40
2022-12-19T02:54:56.845Z,41.40
2022-12-19T02:57:31.719Z,42.00
2022-12-19T03:00:10.928Z,41.70
2022-12-19T03:03:10.414Z,44.20
2022-12-19T03:06:13.589Z,40.50
2022-12-19T03:08:59.609Z,43.10
2022-12-19T03:11:31.322Z,41.90
2022-12-19T03:14:06.689Z,43.30
2022-12-19T03:16:36.864Z,40.80
2022-12-19T03:19:09.248Z,43.10
2022-12-19T03:21:42.117Z,41.10
2022-12-19T03:24:10.805Z,39.20
2022-12-19T03:26:49.914Z,42.70
2022-12-19T03:29:36.918Z,43.50
2022-12-19T03:32:07.124Z,42.90
2022-12-19T03:34:44.632Z,43.50
2022-12-19T03:37:14.830Z,42.40
2022-12-19T03:39:42.828Z,40.80
2022-12-19T03:42:28.530Z,44.80
2022-12-19T03:45:00.186Z,36.60
2022-12-19T03:47:39.168Z,37.80
2022-12-19T03:50:06.458Z,39.40
2022-12-19T03:52:46.506Z,40.60
2022-12-19T03:55:26.505Z,37.10
2022-12-19T03:57:59.525Z,39.70
2022-12-19T04:00:26.800Z,38.90
2022-12-19T04:02:55.705Z,38.00
2022-12-19T04:05:24.704Z,37.10
2022-12-19T04:07:54.262Z,39.70
2022-12-19T04:10:23.133Z,37.80
2022-12-19T04:13:13.084Z,35.40
2022-12-19T04:15:48.297Z,36.20
2022-12-19T04:18:15.400Z,38.40
2022-12-19T04:20:45.245Z,36.70
2022-12-19T04:23:18.221Z,36.00
2022-12-19T04:25:50.748Z,37.80
2022-12-19T04:28:25.877Z,37.70
2022-12-19T04:30:53.407Z,39.60
2022-12-19T04:33:19.847Z,37.60
2022-12-19T04:35:46.266Z,32.80
2022-12-19T04:38:12.786Z,37.30
2022-12-19T04:40:41.463Z,36.00
2022-12-19T04:43:08.561Z,37.20
2022-12-19T04:45:35.093Z,37.40
2022-12-19T04:48:03.230Z,36.90
2022-12-19T04:50:29.633Z,37.20
2022-12-19T04:52:57.420Z,37.20
2022-12-19T04:55:23.759Z,36.50
2022-12-19T04:57:50.232Z,37.30
2022-12-19T05:00:16.965Z,35.40
2022-12-19T05:02:43.909Z,37.10
2022-12-19T05:05:10.517Z,38.20
2022-12-19T05:07:36.865Z,35.50
2022-12-19T05:10:04.047Z,35.60
2022-12-19T05:12:30.548Z,37.00
2022-12-19T05:14:57.068Z,37.20
2022-12-19T05:17:23.631Z,35.90
2022-12-19T05:19:50.107Z,36.10
2022-12-19T05:22:16.683Z,37.10
2022-12-19T05:24:43.103Z,36.70
2022-12-19T05:27:09.577Z,31.00
2022-12-19T05:29:35.947Z,37.60
2022-12-19T05:32:02.274Z,36.40
2022-12-19T05:34:28.796Z,38.30
2022-12-19T05:36:55.398Z,36.90
2022-12-19T05:39:21.823Z,37.50
2022-12-19T05:41:49.307Z,37.20
2022-12-19T05:44:16.150Z,36.00
2022-12-19T05:46:42.595Z,38.00
2022-12-19T05:49:09.030Z,38.10
2022-12-19T05:51:35.587Z,36.50
2022-12-19T05:54:02.343Z,35.60
2022-12-19T05:56:28.679Z,36.40
2022-12-19T05:58:55.290Z,36.50
2022-12-19T06:01:24.328Z,38.30
2022-12-19T06:03:51.369Z,35.30
2022-12-19T06:06:20.074Z,36.50
2022-12-19T06:08:47.011Z,34.40
2022-12-19T06:11:14.049Z,32.90
2022-12-19T06:13:41.069Z,34.90
2022-12-19T06:16:12.164Z,33.40
2022-12-19T06:18:44.260Z,33.50
2022-12-19T06:21:16.250Z,34.40
2022-12-19T06:23:43.121Z,33.50
2022-12-19T06:26:18.316Z,33.40
2022-12-19T06:28:45.893Z,34.60
2022-12-19T06:31:12.774Z,33.60
2022-12-19T06:33:39.423Z,33.80
2022-12-19T06:36:27.031Z,33.80
2022-12-19T06:38:55.269Z,30.60
2022-12-19T06:41:40.528Z,32.30
2022-12-19T06:44:09.901Z,30.40
2022-12-19T06:46:38.350Z,30.70
2022-12-19T06:49:05.179Z,30.20
2022-12-19T06:51:32.057Z,29.60
2022-12-19T06:53:58.715Z,28.70
2022-12-19T06:56:25.599Z,29.50
2022-12-19T06:58:52.125Z,30.50
2022-12-19T07:01:21.324Z,31.10
2022-12-19T07:03:48.381Z,30.50
2022-12-19T07:06:14.852Z,30.30
2022-12-19T07:08:41.489Z,30.60
2022-12-19T07:11:07.997Z,30.70
2022-12-19T07:13:34.457Z,30.90
2022-12-19T07:16:02.632Z,30.80
2022-12-19T07:18:30.801Z,31.80
2022-12-19T07:20:57.484Z,32.40
2022-12-19T07:23:23.891Z,31.90
2022-12-19T07:25:50.260Z,32.70
2022-12-19T07:28:16.729Z,31.80
2022-12-19T07:30:43.075Z,29.40
2022-12-19T07:33:11.257Z,34.80
2022-12-19T07:35:39.254Z,32.20
2022-12-19T07:38:07.695Z,29.30
2022-12-19T07:40:35.076Z,28.90
2022-12-19T07:43:02.521Z,30.60
2022-12-19T07:45:29.601Z,29.20
2022-12-19T07:48:00.513Z,29.70
2022-12-19T07:50:27.516Z,25.20
2022-12-19T07:52:54.471Z,26.50
2022-12-19T07:55:20.898Z,24.40
2022-12-19T07:57:47.373Z,24.60
2022-12-19T08:00:14.709Z,25.60
2022-12-19T08:02:41.331Z,23.80
2022-12-19T08:05:08.795Z,25.90
2022-12-19T08:07:35.141Z,27.40
2022-12-19T08:10:01.524Z,26.60
2022-12-19T08:12:28.142Z,24.30
2022-12-19T08:14:57.338Z,27.20
2022-12-19T08:17:24.076Z,26.60
2022-12-19T08:19:50.604Z,27.60
2022-12-19T08:22:17.117Z,28.00
2022-12-19T08:24:43.675Z,26.90
2022-12-19T08:27:10.195Z,26.40
2022-12-19T08:29:36.538Z,26.20
2022-12-19T08:32:03.001Z,25.90
2022-12-19T08:34:29.411Z,25.20
2022-12-19T08:36:56.343Z,22.50
2022-12-19T08:39:22.683Z,22.50
2022-12-19T08:41:49.192Z,22.50
2022-12-19T08:44:15.710Z,20.50
2022-12-19T08:46:48.080Z,19.60
2022-12-19T08:49:16.424Z,18.60
2022-12-19T08:51:43.050Z,18.70
2022-12-19T08:54:11.741Z,20.90
2022-12-19T08:56:38.775Z,19.20
2022-12-19T08:59:21.241Z,18.30
2022-12-19T09:05:34.321Z,19.10
2022-12-19T09:07:15.749Z,17.90
2022-12-19T09:09:48.107Z,17.60
2022-12-19T09:12:16.192Z,18.40
2022-12-19T09:14:43.591Z,17.00
2022-12-19T09:17:10.127Z,18.20
2022-12-19T09:19:36.724Z,17.50
2022-12-19T09:22:03.873Z,19.30
2022-12-19T09:24:30.239Z,17.10
2022-12-19T09:26:56.643Z,16.70
2022-12-19T09:29:24.132Z,17.40
2022-12-19T09:31:55.622Z,16.30
2022-12-19T09:34:37.402Z,15.90
2022-12-19T09:37:06.824Z,14.90
2022-12-19T09:39:34.386Z,13.90
2022-12-19T09:42:20.677Z,14.80
2022-12-19T09:45:11.211Z,14.70
2022-12-19T09:47:43.316Z,13.30
2022-12-19T09:50:29.041Z,14.50
2022-12-19T09:53:12.522Z,13.90
2022-12-19T09:55:40.901Z,13.40
2022-12-19T09:58:24.023Z,13.10
2022-12-19T10:00:59.939Z,13.30
2022-12-19T10:03:40.876Z,13.30
2022-12-19T10:07:13.392Z,13.00
2022-12-19T10:10:40.103Z,11.80
2022-12-19T10:12:45.273Z,10.80
2022-12-19T10:15:25.293Z,13.80
2022-12-19T10:18:08.421Z,14.30
2022-12-19T10:20:41.209Z,14.50
2022-12-19T10:23:55.994Z,13.60
2022-12-19T10:26:29.830Z,14.30
2022-12-19T10:29:25.191Z,14.20
2022-12-19T10:32:03.605Z,15.10
2022-12-19T10:34:41.073Z,13.80
2022-12-19T10:37:29.085Z,14.50
2022-12-19T10:40:27.744Z,15.00
2022-12-19T10:42:59.436Z,13.90
2022-12-19T10:45:48.916Z,14.70
2022-12-19T10:48:18.303Z,14.30
2022-12-19T10:50:46.633Z,15.80
2022-12-19T10:53:13.920Z,15.90
2022-12-19T10:55:43.779Z,16.80
2022-12-19T10:58:24.792Z,15.00
2022-12-19T11:01:04.543Z,14.40
2022-12-19T11:03:34.792Z,14.80
2022-12-19T11:06:02.781Z,14.40
2022-12-19T11:08:34.544Z,14.40
2022-12-19T11:12:28.998Z,14.20
2022-12-19T11:19:33.471Z,15.00
2022-12-19T11:21:47.738Z,15.60
2022-12-19T11:29:26.509Z,15.00
2022-12-19T11:29:33.928Z,15.30
2022-12-19T11:30:37.983Z,15.50
2022-12-19T11:30:47.108Z,15.10
2022-12-19T11:34:02.564Z,16.20
2022-12-19T11:36:47.135Z,15.10
2022-12-19T11:39:31.587Z,16.60
2022-12-19T11:42:23.963Z,16.10
2022-12-19T11:44:58.446Z,15.80
2022-12-19T11:47:44.530Z,16.20
2022-12-19T11:50:16.263Z,15.60
2022-12-19T11:53:05.119Z,14.80
2022-12-19T12:35:34.425Z,15.80
2022-12-19T12:58:55.482Z,14.70
2022-12-19T13:01:41.854Z,14.30
2022-12-19T13:04:36.098Z,12.30
2022-12-19T13:09:06.987Z,14.20
2022-12-19T13:12:46.846Z,13.60
2022-12-19T13:15:39.883Z,14.50
2022-12-19T13:18:35.817Z,13.60
2022-12-19T13:21:09.706Z,14.50
2022-12-19T13:26:50.206Z,14.10
2022-12-19T13:29:30.473Z,14.20
2022-12-19T13:35:32.592Z,13.50
2022-12-19T13:39:54.908Z,15.10
2022-12-19T13:41:47.908Z,16.70
2022-12-19T13:44:22.141Z,15.00
2022-12-19T13:46:51.434Z,15.50
2022-12-19T13:49:50.052Z,13.40
2022-12-19T13:52:28.221Z,16.00
2022-12-19T13:55:15.641Z,16.20
2022-12-19T13:57:52.859Z,15.00
2022-12-19T14:00:53.556Z,14.50
2022-12-19T14:03:53.152Z,13.40
2022-12-19T14:06:26.408Z,14.80
2022-12-19T14:11:24.294Z,14.70
2022-12-19T14:13:45.276Z,14.90
2022-12-19T14:15:25.523Z,13.30
2022-12-19T14:17:53.824Z,15.30
2022-12-19T14:22:03.527Z,15.20
2022-12-19T14:23:13.492Z,14.80
2022-12-19T14:28:17.824Z,17.40
2022-12-19T14:28:48.984Z,17.80
2022-12-19T14:31:22.808Z,16.80
2022-12-19T14:34:19.124Z,15.60
2022-12-19T14:37:54.335Z,16.90
2022-12-19T14:40:23.191Z,15.40
2022-12-19T14:43:59.928Z,13.40
2022-12-19T14:54:00.767Z,13.70
2022-12-19T14:54:07.010Z,14.20
2022-12-19T14:54:23.584Z,14.50
2022-12-19T14:56:15.900Z,14.30
2022-12-19T14:58:52.325Z,15.60
2022-12-19T15:01:28.792Z,15.50
2022-12-19T15:04:52.515Z,16.50
2022-12-19T15:07:06.728Z,16.60
2022-12-19T15:10:59.501Z,12.80
2022-12-19T15:14:46.785Z,15.60
2022-12-19T15:16:42.627Z,15.00
2022-12-19T15:19:13.878Z,16.20
2022-12-19T15:21:42.834Z,17.60
2022-12-19T15:24:14.106Z,16.10
2022-12-19T15:26:54.463Z,14.80
2022-12-19T15:29:24.507Z,15.40
2022-12-19T15:31:57.629Z,13.50
2022-12-19T15:34:44.392Z,16.10
2022-12-19T15:37:18.076Z,16.00
2022-12-19T15:39:46.663Z,15.10
2022-12-19T15:42:24.666Z,15.00
2022-12-19T15:44:57.534Z,15.90
2022-12-19T15:54:08.962Z,15.80
2022-12-19T15:56:47.638Z,13.80
2022-12-19T15:59:32.986Z,15.20
2022-12-19T16:02:13.884Z,15.40
2022-12-19T16:04:41.916Z,15.70
2022-12-19T16:07:30.330Z,15.70
2022-12-19T16:09:58.102Z,15.90
2022-12-19T16:12:37.222Z,16.80
2022-12-19T16:15:07.288Z,15.30
2022-12-19T16:17:34.995Z,14.60
2022-12-19T16:20:02.792Z,16.30
2022-12-19T16:22:30.615Z,16.10
2022-12-19T16:24:58.319Z,14.60
2022-12-19T16:27:30.708Z,14.90
2022-12-19T16:30:16.609Z,15.30
2022-12-19T16:32:47.228Z,15.50
2022-12-19T16:35:34.236Z,15.00
2022-12-19T16:38:05.381Z,14.90
2022-12-19T16:40:33.189Z,15.10
2022-12-19T16:43:31.446Z,16.30
2022-12-19T16:46:01.416Z,15.70
2022-12-19T16:48:30.362Z,15.00
2022-12-19T16:50:59.292Z,15.30
2022-12-19T16:53:27.147Z,15.40
2022-12-19T16:55:56.800Z,14.50
2022-12-19T16:58:26.602Z,16.00
2022-12-19T17:00:55.507Z,14.60
2022-12-19T17:03:41.594Z,15.70
2022-12-19T17:06:14.997Z,15.20
2022-12-19T17:08:43.040Z,15.30
2022-12-19T17:11:31.092Z,14.80
2022-12-19T17:14:10.183Z,13.60
2022-12-19T17:16:38.323Z,15.00
2022-12-19T17:19:06.122Z,15.00
2022-12-19T17:21:33.901Z,13.50
2022-12-19T17:24:01.636Z,15.10
2022-12-19T17:26:29.370Z,16.30
2022-12-19T17:28:57.087Z,13.70
2022-12-19T17:31:28.739Z,15.40
2022-12-19T17:33:58.095Z,13.50
2022-12-19T17:36:32.778Z,13.60
2022-12-19T17:39:02.869Z,13.00
2022-12-19T17:41:30.704Z,13.30
2022-12-19T17:43:58.473Z,14.40
2022-12-19T17:46:36.644Z,14.30
2022-12-19T17:49:05.241Z,15.10
2022-12-19T17:51:33.035Z,13.10
2022-12-19T17:54:00.805Z,13.80
2022-12-19T17:56:29.570Z,13.50
2022-12-19T17:58:57.476Z,14.00
2022-12-19T18:01:25.529Z,14.10
2022-12-19T18:03:54.269Z,15.40
2022-12-19T18:06:22.251Z,15.20
2022-12-19T18:08:50.012Z,13.60
2022-12-19T18:11:25.919Z,13.80
2022-12-19T18:13:53.781Z,14.20
2022-12-19T18:16:28.141Z,14.30
2022-12-19T18:18:56.920Z,14.30
2022-12-19T18:21:24.819Z,13.10
2022-12-19T18:23:52.745Z,13.90
2022-12-19T18:26:20.565Z,14.60
2022-12-19T18:28:48.868Z,13.40
2022-12-19T18:31:26.535Z,13.30
2022-12-19T18:33:55.170Z,12.30
2022-12-19T18:36:26.355Z,14.50
2022-12-19T18:38:55.598Z,14.00
2022-12-19T18:41:23.825Z,16.60
2022-12-19T18:43:51.718Z,14.90
2022-12-19T18:46:26.561Z,13.90
2022-12-19T18:48:55.527Z,16.60
2022-12-19T18:51:23.646Z,15.40
2022-12-19T18:53:51.713Z,15.50
2022-12-19T18:56:19.807Z,14.10
2022-12-19T18:58:48.566Z,14.10
2022-12-19T19:01:18.474Z,14.40
2022-12-19T19:03:57.363Z,14.90
2022-12-19T19:06:27.790Z,14.50
2022-12-19T19:09:00.319Z,14.30
2022-12-19T19:11:54.201Z,15.10
2022-12-19T19:14:22.376Z,14.10
2022-12-19T19:16:50.187Z,15.00
2022-12-19T19:19:18.705Z,14.30
2022-12-19T19:21:46.575Z,13.70
2022-12-19T19:24:17.523Z,13.80
2022-12-19T19:26:45.297Z,14.30
2022-12-19T19:29:19.179Z,13.50
2022-12-19T19:31:48.925Z,14.80
2022-12-19T19:34:28.764Z,14.70
2022-12-19T19:36:58.451Z,14.30
2022-12-19T19:39:27.804Z,13.70
2022-12-19T19:41:56.385Z,14.20
2022-12-19T19:44:24.523Z,15.60
2022-12-19T19:46:52.546Z,14.30
2022-12-19T19:49:21.234Z,12.40
2022-12-19T19:51:48.969Z,11.40
2022-12-19T19:54:16.975Z,14.10
2022-12-19T19:56:44.729Z,13.30
2022-12-19T19:59:12.514Z,14.90
2022-12-19T20:01:40.365Z,13.30
2022-12-19T20:04:08.443Z,14.20
2022-12-19T20:06:36.271Z,13.20
2022-12-19T20:09:04.552Z,13.30
2022-12-19T20:11:32.584Z,13.10
2022-12-19T20:14:00.373Z,14.20
2022-12-19T20:16:30.283Z,14.00
2022-12-19T20:18:58.149Z,13.90
2022-12-19T20:21:25.980Z,13.10
2022-12-19T20:23:53.790Z,13.20
2022-12-19T20:26:21.536Z,11.20
2022-12-19T20:28:50.616Z,15.10
2022-12-19T20:31:20.349Z,13.40
2022-12-19T20:33:48.901Z,13.00
2022-12-19T20:36:17.131Z,12.10
2022-12-19T20:38:45.373Z,13.80
2022-12-19T20:41:13.601Z,12.60
2022-12-19T20:43:41.559Z,14.00
2022-12-19T20:46:13.264Z,14.50
2022-12-19T20:48:42.046Z,14.90
2022-12-19T20:51:10.186Z,14.70
2022-12-19T20:53:39.494Z,14.20
2022-12-19T20:56:09.257Z,13.60
2022-12-19T20:58:37.843Z,13.30
2022-12-19T21:01:11.119Z,12.00
2022-12-19T21:03:40.048Z,12.70
2022-12-19T21:06:10.336Z,12.90
2022-12-19T21:08:38.798Z,14.30
2022-12-19T21:11:08.436Z,11.60
2022-12-19T21:13:38.032Z,15.40
2022-12-19T21:16:08.891Z,12.00
2022-12-19T21:18:38.550Z,14.00
2022-12-19T21:21:08.135Z,12.90
2022-12-19T21:23:36.008Z,12.40
2022-12-19T21:26:04.667Z,12.60
2022-12-19T21:28:32.857Z,12.90
2022-12-19T21:31:20.276Z,13.60
2022-12-19T21:33:48.907Z,13.30
2022-12-19T21:36:19.982Z,13.70
2022-12-19T21:38:49.964Z,13.60
2022-12-19T21:41:21.413Z,14.90
2022-12-19T21:43:53.370Z,11.90
2022-12-19T21:46:27.084Z,12.90
2022-12-19T21:48:56.733Z,13.90
2022-12-19T21:51:28.556Z,12.00
2022-12-19T21:54:00.418Z,12.50
2022-12-19T21:56:34.451Z,13.40
2022-12-19T21:59:06.108Z,13.30
2022-12-19T22:01:34.309Z,12.10
2022-12-19T22:04:06.360Z,14.30
2022-12-19T22:06:37.184Z,13.10
2022-12-19T22:09:07.295Z,12.80
2022-12-19T22:11:36.047Z,12.80
2022-12-19T22:14:05.454Z,13.30
2022-12-19T22:16:34.198Z,12.90
2022-12-19T22:19:02.526Z,12.50
2022-12-19T22:21:31.047Z,12.80
2022-12-19T22:24:00.293Z,12.90
2022-12-19T22:26:29.904Z,13.10
2022-12-19T22:28:57.997Z,11.20
2022-12-19T22:31:27.993Z,12.40
2022-12-19T22:33:58.937Z,13.60
2022-12-19T22:36:29.145Z,12.00
2022-12-19T22:38:57.929Z,13.70
2022-12-19T22:41:26.486Z,12.60
2022-12-19T22:43:55.158Z,13.80
2022-12-19T22:46:28.257Z,13.70
2022-12-19T22:49:01.476Z,14.20
2022-12-19T22:51:30.443Z,14.40
2022-12-19T22:53:59.447Z,13.10
2022-12-19T22:56:28.875Z,13.10
2022-12-19T22:59:00.185Z,13.60
2022-12-19T23:01:31.112Z,13.10
2022-12-19T23:04:00.401Z,13.40
2022-12-19T23:06:29.576Z,12.60
2022-12-19T23:08:57.819Z,13.60
2022-12-19T23:11:28.895Z,13.20
2022-12-19T23:13:56.680Z,10.90
2022-12-19T23:16:24.854Z,12.90
2022-12-19T23:18:52.745Z,11.40
2022-12-19T23:21:22.705Z,12.70
2022-12-19T23:23:52.314Z,11.90
2022-12-19T23:26:27.866Z,10.60
2022-12-19T23:28:58.114Z,11.60
2022-12-19T23:31:27.265Z,12.60
2022-12-19T23:33:55.791Z,11.80
2022-12-19T23:37:00.413Z,12.10
2022-12-19T23:39:13.061Z,12.00
2022-12-19T23:41:40.938Z,11.60
2022-12-19T23:44:10.095Z,11.60
2022-12-19T23:46:38.177Z,10.80
2022-12-19T23:49:06.414Z,11.30
2022-12-19T23:51:34.103Z,11.20
2022-12-19T23:54:01.850Z,13.00
2022-12-19T23:56:31.483Z,11.00
2022-12-19T23:58:59.569Z,11.80
